Detalii statie CEREAMIN SMEENI [00001CFD]

Toti senzorii

Date Temperatura solului [C]Precipitatii [mm]Voltaj baterie [mV]Leaf Wetness [Min]HC Air temperature [C]HC Relative humidity [%]Punctul de roua [C]
medieminmaxsumaultimatimpmedieminmaxmediemediemin
2018-10-13 15:00:00 15.6 15.2 15.9 0 7294 21.36 20.91 21.64 20.34 -2.4 -3.1
2018-10-13 16:00:00 15.9 15.8 16 0 7284 20.35 19.68 20.92 21.83 -2.3 -2.9
2018-10-13 17:00:00 15.6 15.4 15.9 0 7216 18.95 18.12 19.57 23.32 -2.7 -3.7
2018-10-13 18:00:00 15.1 14.9 15.4 0 7128 15.86 14.24 17.83 27.34 -3.1 -3.5
2018-10-13 19:00:00 14.6 14.3 14.9 0 7060 13.12 12.23 13.92 31.83 -3.4 -3.6
2018-10-13 20:00:00 14.1 13.7 14.4 0 6992 10.77 10.17 11.7 40.43 -2.2 -3.1
2018-10-13 21:00:00 13.7 13.4 14 0 6922 11.91 11.32 12.62 37.81 -2.1 -2.4
2018-10-13 22:00:00 13.3 13.1 13.6 0 6894 10.25 9.69 11.23 42 -2.2 -2.4
2018-10-13 23:00:00 13 12.9 13.2 0 6884 9.74 9.18 10.37 43.07 -2.2 -2.4
2018-10-14 00:00:00 12.7 12.5 12.9 0 6884 8.83 8.2 9.28 45.68 -2.3 -2.5
2018-10-14 01:00:00 12.3 12.2 12.5 0 6874 8.19 7.88 8.49 46.84 -2.5 -2.8
2018-10-14 02:00:00 12 11.9 12.3 0 6874 8.94 8.32 9.41 43 -3 -3.4
2018-10-14 03:00:00 11.8 11.6 12 0 6874 8.01 7.67 8.37 44.49 -3.4 -3.8
2018-10-14 04:00:00 11.6 11.5 11.7 0 6854 8.29 8.15 8.43 42.76 -3.6 -3.8
2018-10-14 05:00:00 11.3 11.2 11.4 0 6854 8.16 7.98 8.4 43.24 -3.6 -3.9
2018-10-14 06:00:00 11.1 11 11.2 0 6834 8.09 7.44 8.46 43.78 -3.5 -3.7
2018-10-14 07:00:00 10.9 10.8 11.1 0 6834 7.75 7.21 8.55 45.32 -3.4 -3.7
2018-10-14 08:00:00 10.7 10.7 10.9 0 7304 11.06 8.86 13.44 37.97 -2.8 -3.3
2018-10-14 09:00:00 10.8 10.7 11 0 7304 15.2 13.77 16.32 29.89 -2.4 -2.9
2018-10-14 10:00:00 11.1 11 11.4 0 7304 17.31 16.5 17.87 28.28 -1.3 -1.9
2018-10-14 11:00:00 11.5 11.4 11.7 0 7284 17.89 17.51 18.18 29.81 -0.2 -0.8
2018-10-14 12:00:00 11.9 11.7 12.1 0 7294 19.78 18.57 20.85 26.51 -0.2 -0.6
2018-10-14 13:00:00 12.8 12.3 13.3 0 7294 21.41 20.81 21.95 23.94 -0.2 -0.6
2018-10-14 14:00:00 14 13.5 14.5 0 7294 21.78 21.53 22.1 24.16 0.1 -0.3
2018-10-14 15:00:00 14.8 14.5 15.1 0 7294 21.91 21.63 22.33 24.38 0.3 0
2018-10-14 16:00:00 15.2 15 15.3 0 7264 20.97 20.37 21.43 26.59 0.7 0.5
2018-10-14 17:00:00 15 14.9 15.3 0 7196 19.46 18.39 20.21 30.41 1.3 1
2018-10-14 18:00:00 14.6 14.4 14.9 0 7108 16.42 14.08 18.07 36.93 1.3 1
2018-10-14 19:00:00 14.1 14 14.4 0 7040 13.51 12.77 14.32 43.51 1.1 0.9
2018-10-14 20:00:00 13.7 13.5 14 0 6982 12.52 11.51 14 45.54 0.8 0.7
2018-10-14 21:00:00 13.3 13.2 13.5 0 6932 11.27 9.37 12.43 49 0.7 0.5
2018-10-14 22:00:00 13 12.9 13.2 0 6894 10.51 10.08 11.16 52.23 0.9 0.7
2018-10-14 23:00:00 12.6 12.5 12.9 0 6894 8.27 7.48 10.11 62.72 1.4 1.1
2018-10-15 00:00:00 12.3 12.2 12.6 0 6894 6.86 6.35 7.62 70.74 1.7 1.5
2018-10-15 01:00:00 12 11.9 12.2 0 6884 6.3 5.22 7.04 73.95 1.8 1.6
2018-10-15 02:00:00 11.7 11.6 11.9 0 6884 6.68 4.98 7.98 73.23 2 1.9
2018-10-15 03:00:00 11.5 11.4 11.7 0 6874 6.9 6.11 7.46 71.24 1.9 1.7
2018-10-15 04:00:00 11.2 11.1 11.4 0 6854 6.1 5.26 6.83 77.24 2.2 2.1
2018-10-15 05:00:00 11 10.9 11.2 0 6844 5.52 5.24 5.72 81.48 2.5 2.3
2018-10-15 06:00:00 10.8 10.7 11 0 6834 4.94 4.46 5.4 84.51 2.4 2.2
2018-10-15 07:00:00 10.5 10.4 10.8 0 6826 4.5 4.29 4.76 88.54 2.6 2.4
2018-10-15 08:00:00 10.4 10.3 10.6 0 7314 7.84 5.17 11.04 76.9 3.8 3.3
2018-10-15 09:00:00 10.5 10.4 10.7 0 7294 14.69 11.56 17.19 49.32 3.7 2.7
2018-10-15 10:00:00 10.8 10.6 11.3 0 7294 18.25 17.24 19.12 36.43 2.8 2.4
2018-10-15 11:00:00 11.3 11.1 11.5 0 7284 18.89 18.61 19.12 35.61 3.1 2.7
2018-10-15 12:00:00 11.6 11.5 12 0 7294 20.49 19.17 22.08 31.51 2.7 2.5
2018-10-15 13:00:00 12.7 12.2 13.3 0 7294 22.49 21.69 22.83 26.78 2 1.5
2018-10-15 14:00:00 13.8 13.3 14.3 0 7294 23.06 22.72 23.27 25.17 1.7 0.7